sensor_id;sensor_type;location;lat;lon;timestamp;pressure;altitude;pressure_sealevel;temperature;humidity
32789;BME280;19141;48.980;8.410;2022-12-24T05:22:38;100011.28;;;10.17;100.00
32789;BME280;19141;48.980;8.410;2022-12-24T05:25:22;99997.81;;;10.19;100.00
32789;BME280;19141;48.980;8.410;2022-12-24T05:28:06;100005.94;;;10.25;100.00
32789;BME280;19141;48.980;8.410;2022-12-24T05:30:32;100011.25;;;10.25;100.00
32789;BME280;19141;48.980;8.410;2022-12-24T05:32:57;100009.88;;;10.29;100.00
32789;BME280;19141;48.980;8.410;2022-12-24T05:35:23;100012.84;;;10.35;100.00
32789;BME280;19141;48.980;8.410;2022-12-24T05:37:48;100024.31;;;10.35;100.00
32789;BME280;19141;48.980;8.410;2022-12-24T05:40:14;100015.31;;;10.36;100.00
32789;BME280;19141;48.980;8.410;2022-12-24T05:42:39;100016.00;;;10.38;100.00
32789;BME280;19141;48.980;8.410;2022-12-24T05:45:05;100026.47;;;10.40;100.00
32789;BME280;19141;48.980;8.410;2022-12-24T05:47:31;100027.78;;;10.44;100.00
32789;BME280;19141;48.980;8.410;2022-12-24T05:49:56;100037.41;;;10.45;100.00
32789;BME280;19141;48.980;8.410;2022-12-24T05:52:21;100025.94;;;10.44;100.00
32789;BME280;19141;48.980;8.410;2022-12-24T05:54:47;100031.09;;;10.46;100.00
32789;BME280;19141;48.980;8.410;2022-12-24T05:57:12;100042.19;;;10.49;100.00
32789;BME280;19141;48.980;8.410;2022-12-24T05:59:37;100044.84;;;10.49;100.00
32789;BME280;19141;48.980;8.410;2022-12-24T06:02:03;100045.03;;;10.48;100.00
32789;BME280;19141;48.980;8.410;2022-12-24T06:04:28;100044.53;;;10.52;100.00
32789;BME280;19141;48.980;8.410;2022-12-24T06:06:54;100046.53;;;10.50;100.00
32789;BME280;19141;48.980;8.410;2022-12-24T06:09:19;100049.84;;;10.52;100.00
32789;BME280;19141;48.980;8.410;2022-12-24T06:11:44;100050.66;;;10.53;100.00
32789;BME280;19141;48.980;8.410;2022-12-24T06:14:10;100048.84;;;10.53;100.00
32789;BME280;19141;48.980;8.410;2022-12-24T06:16:35;100057.84;;;10.52;100.00
32789;BME280;19141;48.980;8.410;2022-12-24T06:19:01;100070.31;;;10.52;100.00
32789;BME280;19141;48.980;8.410;2022-12-24T06:21:26;100044.59;;;10.44;100.00
32789;BME280;19141;48.980;8.410;2022-12-24T06:23:52;100061.81;;;10.56;100.00
32789;BME280;19141;48.980;8.410;2022-12-24T06:26:21;100061.44;;;10.59;100.00
32789;BME280;19141;48.980;8.410;2022-12-24T06:28:47;100069.06;;;10.63;100.00
32789;BME280;19141;48.980;8.410;2022-12-24T06:31:15;100074.75;;;10.59;100.00
32789;BME280;19141;48.980;8.410;2022-12-24T06:33:41;100079.19;;;10.67;100.00
32789;BME280;19141;48.980;8.410;2022-12-24T06:36:20;100075.88;;;10.65;100.00
32789;BME280;19141;48.980;8.410;2022-12-24T06:38:46;100085.53;;;10.66;100.00
32789;BME280;19141;48.980;8.410;2022-12-24T06:41:12;100100.69;;;10.66;100.00
32789;BME280;19141;48.980;8.410;2022-12-24T06:43:38;100099.03;;;10.65;100.00
32789;BME280;19141;48.980;8.410;2022-12-24T06:46:04;100094.53;;;10.65;100.00
32789;BME280;19141;48.980;8.410;2022-12-24T06:48:29;100095.53;;;10.64;100.00
32789;BME280;19141;48.980;8.410;2022-12-24T06:50:55;100102.88;;;10.62;100.00
32789;BME280;19141;48.980;8.410;2022-12-24T06:53:20;100094.88;;;10.62;100.00
32789;BME280;19141;48.980;8.410;2022-12-24T06:55:47;100086.19;;;10.68;100.00
32789;BME280;19141;48.980;8.410;2022-12-24T06:58:13;100102.72;;;10.64;100.00
32789;BME280;19141;48.980;8.410;2022-12-24T07:00:38;100095.66;;;10.71;100.00
32789;BME280;19141;48.980;8.410;2022-12-24T07:03:04;100105.13;;;10.73;100.00
32789;BME280;19141;48.980;8.410;2022-12-24T07:05:29;100106.97;;;10.73;100.00
32789;BME280;19141;48.980;8.410;2022-12-24T07:07:55;100110.53;;;10.65;100.00
32789;BME280;19141;48.980;8.410;2022-12-24T07:10:21;100126.13;;;10.68;100.00
32789;BME280;19141;48.980;8.410;2022-12-24T07:12:47;100124.16;;;10.70;100.00
32789;BME280;19141;48.980;8.410;2022-12-24T07:15:13;100129.09;;;10.73;100.00
32789;BME280;19141;48.980;8.410;2022-12-24T07:17:39;100133.59;;;10.73;100.00
32789;BME280;19141;48.980;8.410;2022-12-24T07:20:06;100140.13;;;10.70;100.00
32789;BME280;19141;48.980;8.410;2022-12-24T07:22:33;100134.81;;;10.70;100.00
32789;BME280;19141;48.980;8.410;2022-12-24T07:24:59;100128.66;;;10.70;100.00
32789;BME280;19141;48.980;8.410;2022-12-24T07:27:24;100134.81;;;10.70;100.00
32789;BME280;19141;48.980;8.410;2022-12-24T07:29:50;100140.13;;;10.70;100.00
32789;BME280;19141;48.980;8.410;2022-12-24T07:32:15;100145.59;;;10.69;100.00
32789;BME280;19141;48.980;8.410;2022-12-24T07:34:41;100145.47;;;10.70;100.00
32789;BME280;19141;48.980;8.410;2022-12-24T07:37:07;100144.13;;;10.66;100.00
32789;BME280;19141;48.980;8.410;2022-12-24T07:39:32;100142.66;;;10.64;100.00
32789;BME280;19141;48.980;8.410;2022-12-24T07:41:58;100134.31;;;10.67;100.00
32789;BME280;19141;48.980;8.410;2022-12-24T07:44:23;100133.00;;;10.63;100.00
32789;BME280;19141;48.980;8.410;2022-12-24T07:46:49;100148.97;;;10.63;100.00
32789;BME280;19141;48.980;8.410;2022-12-24T07:49:15;100135.72;;;10.54;100.00
32789;BME280;19141;48.980;8.410;2022-12-24T07:51:40;100140.53;;;10.59;100.00
32789;BME280;19141;48.980;8.410;2022-12-24T07:54:05;100135.53;;;10.56;100.00
32789;BME280;19141;48.980;8.410;2022-12-24T07:56:31;100140.84;;;10.56;100.00
32789;BME280;19141;48.980;8.410;2022-12-24T07:58:57;100147.38;;;10.53;100.00
32789;BME280;19141;48.980;8.410;2022-12-24T08:01:22;100150.03;;;10.53;100.00
32789;BME280;19141;48.980;8.410;2022-12-24T08:03:48;100151.34;;;10.57;100.00
32789;BME280;19141;48.980;8.410;2022-12-24T08:06:15;100157.50;;;10.58;100.00
32789;BME280;19141;48.980;8.410;2022-12-24T08:08:41;100165.97;;;10.62;100.00
32789;BME280;19141;48.980;8.410;2022-12-24T08:11:06;100165.97;;;10.62;100.00
32789;BME280;19141;48.980;8.410;2022-12-24T08:13:32;100172.63;;;10.66;100.00
32789;BME280;19141;48.980;8.410;2022-12-24T08:15:58;100170.97;;;10.65;100.00
32789;BME280;19141;48.980;8.410;2022-12-24T08:18:24;100177.75;;;10.67;100.00
32789;BME280;19141;48.980;8.410;2022-12-24T08:20:49;100174.28;;;10.67;100.00
32789;BME280;19141;48.980;8.410;2022-12-24T08:23:15;100169.59;;;10.69;100.00
32789;BME280;19141;48.980;8.410;2022-12-24T08:25:42;100172.94;;;10.71;100.00
32789;BME280;19141;48.980;8.410;2022-12-24T08:28:07;100166.78;;;10.70;100.00
32789;BME280;19141;48.980;8.410;2022-12-24T08:30:33;100177.25;;;10.72;100.00
32789;BME280;19141;48.980;8.410;2022-12-24T08:32:59;100178.91;;;10.73;100.00
32789;BME280;19141;48.980;8.410;2022-12-24T08:35:24;100183.41;;;10.72;100.00
32789;BME280;19141;48.980;8.410;2022-12-24T08:37:49;100182.38;;;10.73;100.00
32789;BME280;19141;48.980;8.410;2022-12-24T08:40:15;100188.91;;;10.71;100.00
32789;BME280;19141;48.980;8.410;2022-12-24T08:42:40;100186.88;;;10.73;100.00
32789;BME280;19141;48.980;8.410;2022-12-24T08:45:06;100181.22;;;10.76;100.00
32789;BME280;19141;48.980;8.410;2022-12-24T08:47:31;100182.06;;;10.76;100.00
32789;BME280;19141;48.980;8.410;2022-12-24T08:49:57;100184.34;;;10.79;100.00
32789;BME280;19141;48.980;8.410;2022-12-24T08:52:22;100191.16;;;10.82;100.00
32789;BME280;19141;48.980;8.410;2022-12-24T08:54:48;100193.66;;;10.83;100.00
32789;BME280;19141;48.980;8.410;2022-12-24T08:57:13;100194.31;;;10.85;99.63
32789;BME280;19141;48.980;8.410;2022-12-24T08:59:38;100194.31;;;10.85;99.30
32789;BME280;19141;48.980;8.410;2022-12-24T09:02:04;100197.81;;;10.86;99.02
32789;BME280;19141;48.980;8.410;2022-12-24T09:04:30;100201.09;;;10.88;100.00
32789;BME280;19141;48.980;8.410;2022-12-24T09:06:55;100199.81;;;10.84;99.49
32789;BME280;19141;48.980;8.410;2022-12-24T09:09:21;100203.97;;;10.86;98.98
32789;BME280;19141;48.980;8.410;2022-12-24T09:11:46;100194.63;;;10.91;98.68
32789;BME280;19141;48.980;8.410;2022-12-24T09:14:12;100206.09;;;10.91;99.23
32789;BME280;19141;48.980;8.410;2022-12-24T09:16:37;100217.06;;;10.96;98.68
32789;BME280;19141;48.980;8.410;2022-12-24T09:19:03;100216.41;;;10.94;100.00
32789;BME280;19141;48.980;8.410;2022-12-24T09:21:28;100220.13;;;10.85;100.00
32789;BME280;19141;48.980;8.410;2022-12-24T09:23:54;100225.97;;;10.80;100.00
32789;BME280;19141;48.980;8.410;2022-12-24T09:26:25;100240.94;;;10.81;100.00
32789;BME280;19141;48.980;8.410;2022-12-24T09:28:51;100240.34;;;10.71;100.00
32789;BME280;19141;48.980;8.410;2022-12-24T09:31:17;100255.81;;;10.76;100.00
32789;BME280;19141;48.980;8.410;2022-12-24T09:33:45;100253.00;;;10.69;100.00
32789;BME280;19141;48.980;8.410;2022-12-24T09:36:11;100257.84;;;10.66;100.00
32789;BME280;19141;48.980;8.410;2022-12-24T09:38:37;100264.94;;;10.50;100.00
32789;BME280;19141;48.980;8.410;2022-12-24T09:43:45;100270.28;;;10.34;100.00
32789;BME280;19141;48.980;8.410;2022-12-24T09:46:22;100272.63;;;10.29;100.00
32789;BME280;19141;48.980;8.410;2022-12-24T09:48:54;100278.44;;;10.16;100.00
32789;BME280;19141;48.980;8.410;2022-12-24T09:54:06;100262.50;;;10.08;100.00
32789;BME280;19141;48.980;8.410;2022-12-24T09:56:43;100267.34;;;10.04;100.00
32789;BME280;19141;48.980;8.410;2022-12-24T09:59:12;100278.00;;;10.04;100.00
32789;BME280;19141;48.980;8.410;2022-12-24T10:01:39;100274.66;;;10.02;100.00
32789;BME280;19141;48.980;8.410;2022-12-24T10:04:13;100276.66;;;10.00;100.00
32789;BME280;19141;48.980;8.410;2022-12-24T10:09:45;100276.97;;;9.97;100.00
32789;BME280;19141;48.980;8.410;2022-12-24T10:12:24;100280.66;;;9.96;100.00
32789;BME280;19141;48.980;8.410;2022-12-24T10:16:17;100283.47;;;9.95;100.00
32789;BME280;19141;48.980;8.410;2022-12-24T10:21:00;100293.94;;;9.96;100.00
32789;BME280;19141;48.980;8.410;2022-12-24T10:26:23;100285.97;;;9.96;100.00
32789;BME280;19141;48.980;8.410;2022-12-24T10:28:54;100286.81;;;9.89;100.00
32789;BME280;19141;48.980;8.410;2022-12-24T10:31:34;100285.97;;;9.88;100.00
32789;BME280;19141;48.980;8.410;2022-12-24T10:34:02;100292.13;;;9.97;100.00
32789;BME280;19141;48.980;8.410;2022-12-24T10:36:30;100280.66;;;9.96;100.00
32789;BME280;19141;48.980;8.410;2022-12-24T10:38:56;100279.97;;;10.02;100.00
32789;BME280;19141;48.980;8.410;2022-12-24T10:41:24;100278.97;;;10.03;100.00
32789;BME280;19141;48.980;8.410;2022-12-24T10:43:50;100289.94;;;10.09;100.00
32789;BME280;19141;48.980;8.410;2022-12-24T10:46:22;100276.00;;;10.06;100.00
32789;BME280;19141;48.980;8.410;2022-12-24T10:48:55;100276.31;;;10.12;100.00
32789;BME280;19141;48.980;8.410;2022-12-24T10:54:18;100266.66;;;10.27;100.00
32789;BME280;19141;48.980;8.410;2022-12-24T10:56:47;100268.13;;;10.38;100.00
32789;BME280;19141;48.980;8.410;2022-12-24T11:01:57;100268.16;;;11.00;100.00
32789;BME280;19141;48.980;8.410;2022-12-24T11:04:25;100274.31;;;11.54;100.00
32789;BME280;19141;48.980;8.410;2022-12-24T11:11:51;100283.47;;;13.58;100.00
32789;BME280;19141;48.980;8.410;2022-12-24T11:14:18;100283.59;;;13.72;100.00
32789;BME280;19141;48.980;8.410;2022-12-24T11:16:54;100287.22;;;13.64;100.00
32789;BME280;19141;48.980;8.410;2022-12-24T11:19:34;100289.72;;;13.66;100.00
32789;BME280;19141;48.980;8.410;2022-12-24T11:22:07;100287.72;;;13.74;99.44
32789;BME280;19141;48.980;8.410;2022-12-24T11:24:41;100287.50;;;13.69;98.94
32789;BME280;19141;48.980;8.410;2022-12-24T11:27:43;100290.75;;;13.43;98.99
32789;BME280;19141;48.980;8.410;2022-12-24T11:32:43;100281.75;;;13.15;99.24
32789;BME280;19141;48.980;8.410;2022-12-24T11:35:17;100277.97;;;13.09;100.00
32789;BME280;19141;48.980;8.410;2022-12-24T11:37:43;100277.88;;;13.32;100.00
32789;BME280;19141;48.980;8.410;2022-12-24T11:40:20;100283.16;;;13.11;100.00
32789;BME280;19141;48.980;8.410;2022-12-24T11:42:46;100265.94;;;12.98;100.00
32789;BME280;19141;48.980;8.410;2022-12-24T11:45:21;100270.09;;;13.01;100.00
32789;BME280;19141;48.980;8.410;2022-12-24T11:47:47;100271.38;;;13.05;100.00
32789;BME280;19141;48.980;8.410;2022-12-24T11:52:46;100265.16;;;13.19;100.00
32789;BME280;19141;48.980;8.410;2022-12-24T11:58:27;100251.25;;;14.01;100.00
32789;BME280;19141;48.980;8.410;2022-12-24T12:01:03;100258.34;;;14.09;97.16
32789;BME280;19141;48.980;8.410;2022-12-24T12:03:39;100259.50;;;14.62;94.88
32789;BME280;19141;48.980;8.410;2022-12-24T12:06:19;100257.63;;;15.17;90.20
32789;BME280;19141;48.980;8.410;2022-12-24T12:08:49;100256.59;;;15.25;90.08
32789;BME280;19141;48.980;8.410;2022-12-24T12:11:18;100255.38;;;15.21;87.57
32789;BME280;19141;48.980;8.410;2022-12-24T12:13:45;100262.94;;;14.98;89.86
32789;BME280;19141;48.980;8.410;2022-12-24T12:16:20;100267.06;;;14.52;88.42
32789;BME280;19141;48.980;8.410;2022-12-24T12:19:08;100265.34;;;14.10;90.40
32789;BME280;19141;48.980;8.410;2022-12-24T12:21:40;100265.28;;;13.75;92.90
32789;BME280;19141;48.980;8.410;2022-12-24T12:24:19;100276.03;;;14.03;92.73
32789;BME280;19141;48.980;8.410;2022-12-24T12:26:47;100272.78;;;14.15;91.89
32789;BME280;19141;48.980;8.410;2022-12-24T12:29:29;100287.34;;;14.33;88.65
32789;BME280;19141;48.980;8.410;2022-12-24T12:32:01;100274.94;;;14.26;88.35
32789;BME280;19141;48.980;8.410;2022-12-24T12:37:35;100282.22;;;14.04;91.15
32789;BME280;19141;48.980;8.410;2022-12-24T12:40:02;100280.28;;;13.70;91.79
32789;BME280;19141;48.980;8.410;2022-12-24T12:42:33;100277.16;;;13.66;92.27
32789;BME280;19141;48.980;8.410;2022-12-24T12:47:55;100264.69;;;13.16;95.39
32789;BME280;19141;48.980;8.410;2022-12-24T12:50:30;100276.88;;;13.03;94.57
32789;BME280;19141;48.980;8.410;2022-12-24T12:58:37;100271.69;;;12.81;96.69
32789;BME280;19141;48.980;8.410;2022-12-24T13:01:15;100265.34;;;12.82;96.95
32789;BME280;19141;48.980;8.410;2022-12-24T13:04:01;100266.22;;;12.89;96.42
32789;BME280;19141;48.980;8.410;2022-12-24T13:06:50;100262.53;;;13.04;95.96
32789;BME280;19141;48.980;8.410;2022-12-24T13:15:18;100272.50;;;13.53;92.42
32789;BME280;19141;48.980;8.410;2022-12-24T13:18:24;100274.63;;;13.58;93.90
32789;BME280;19141;48.980;8.410;2022-12-24T13:20:57;100270.66;;;13.54;94.07
32789;BME280;19141;48.980;8.410;2022-12-24T13:23:25;100273.84;;;13.43;92.78
32789;BME280;19141;48.980;8.410;2022-12-24T13:25:56;100259.41;;;13.37;92.10
32789;BME280;19141;48.980;8.410;2022-12-24T13:30:53;100265.63;;;13.23;92.69
32789;BME280;19141;48.980;8.410;2022-12-24T13:36:03;100270.13;;;13.22;94.97
32789;BME280;19141;48.980;8.410;2022-12-24T13:38:32;100266.53;;;13.15;93.41
32789;BME280;19141;48.980;8.410;2022-12-24T13:49:52;100251.84;;;12.90;96.96
32789;BME280;19141;48.980;8.410;2022-12-24T13:52:21;100247.72;;;12.87;96.08
32789;BME280;19141;48.980;8.410;2022-12-24T14:00:03;100250.03;;;12.75;96.82
32789;BME280;19141;48.980;8.410;2022-12-24T14:02:45;100250.78;;;12.69;95.52
32789;BME280;19141;48.980;8.410;2022-12-24T14:05:26;100250.78;;;12.69;96.10
32789;BME280;19141;48.980;8.410;2022-12-24T14:07:55;100251.16;;;12.66;96.10
32789;BME280;19141;48.980;8.410;2022-12-24T14:10:24;100257.81;;;12.56;95.90
32789;BME280;19141;48.980;8.410;2022-12-24T14:12:52;100246.84;;;12.50;95.06
32789;BME280;19141;48.980;8.410;2022-12-24T14:16:10;100240.22;;;12.46;95.44
32789;BME280;19141;48.980;8.410;2022-12-24T14:18:30;100238.09;;;12.42;95.75
32789;BME280;19141;48.980;8.410;2022-12-24T14:20:59;100232.22;;;12.46;95.33
32789;BME280;19141;48.980;8.410;2022-12-24T14:23:48;100228.06;;;12.44;95.44
32789;BME280;19141;48.980;8.410;2022-12-24T14:26:22;100232.28;;;12.38;95.97
32789;BME280;19141;48.980;8.410;2022-12-24T14:28:54;100238.03;;;12.35;95.50
32789;BME280;19141;48.980;8.410;2022-12-24T14:31:21;100252.59;;;12.33;95.01
32789;BME280;19141;48.980;8.410;2022-12-24T14:33:46;100252.94;;;12.30;95.87
32789;BME280;19141;48.980;8.410;2022-12-24T14:36:15;100253.75;;;12.15;95.08
32789;BME280;19141;48.980;8.410;2022-12-24T14:38:43;100261.59;;;12.17;95.96
32789;BME280;19141;48.980;8.410;2022-12-24T14:41:45;100259.66;;;12.11;95.43
32789;BME280;19141;48.980;8.410;2022-12-24T14:44:38;100257.41;;;12.00;96.05
32789;BME280;19141;48.980;8.410;2022-12-24T14:47:24;100263.03;;;11.90;97.38
32789;BME280;19141;48.980;8.410;2022-12-24T14:50:13;100247.53;;;11.85;97.44
32789;BME280;19141;48.980;8.410;2022-12-24T14:55:39;100245.56;;;11.79;99.65
32789;BME280;19141;48.980;8.410;2022-12-24T14:58:32;100250.28;;;11.77;99.70
32789;BME280;19141;48.980;8.410;2022-12-24T15:01:00;100250.66;;;11.74;99.64
32789;BME280;19141;48.980;8.410;2022-12-24T15:03:29;100261.47;;;11.73;100.00
32789;BME280;19141;48.980;8.410;2022-12-24T15:06:01;100276.91;;;11.62;100.00
32789;BME280;19141;48.980;8.410;2022-12-24T15:08:39;100277.94;;;11.61;100.00
32789;BME280;19141;48.980;8.410;2022-12-24T15:11:12;100277.75;;;11.63;100.00
32789;BME280;19141;48.980;8.410;2022-12-24T15:13:44;100283.91;;;11.63;100.00
32789;BME280;19141;48.980;8.410;2022-12-24T15:16:13;100274.59;;;11.59;100.00
32789;BME280;19141;48.980;8.410;2022-12-24T15:18:47;100275.16;;;11.55;100.00
32789;BME280;19141;48.980;8.410;2022-12-24T15:21:18;100283.03;;;11.48;100.00
32789;BME280;19141;48.980;8.410;2022-12-24T15:23:48;100287.44;;;11.41;100.00
32789;BME280;19141;48.980;8.410;2022-12-24T15:26:21;100291.44;;;11.37;100.00
32789;BME280;19141;48.980;8.410;2022-12-24T15:28:48;100295.66;;;11.31;100.00
32789;BME280;19141;48.980;8.410;2022-12-24T15:31:18;100295.00;;;11.29;100.00
32789;BME280;19141;48.980;8.410;2022-12-24T15:33:48;100290.19;;;11.25;100.00
32789;BME280;19141;48.980;8.410;2022-12-24T15:36:17;100287.41;;;11.18;100.00
32789;BME280;19141;48.980;8.410;2022-12-24T15:38:51;100293.91;;;11.16;100.00
32789;BME280;19141;48.980;8.410;2022-12-24T15:41:20;100287.91;;;11.13;100.00
32789;BME280;19141;48.980;8.410;2022-12-24T15:43:49;100297.28;;;11.09;100.00
32789;BME280;19141;48.980;8.410;2022-12-24T15:46:25;100286.66;;;11.01;100.00
32789;BME280;19141;48.980;8.410;2022-12-24T15:48:54;100299.13;;;11.09;100.00
32789;BME280;19141;48.980;8.410;2022-12-24T15:51:27;100292.97;;;11.08;100.00
32789;BME280;19141;48.980;8.410;2022-12-24T15:54:01;100296.97;;;11.04;100.00
32789;BME280;19141;48.980;8.410;2022-12-24T15:56:30;100291.97;;;11.01;100.00
32789;BME280;19141;48.980;8.410;2022-12-24T15:59:20;100298.44;;;11.07;100.00
32789;BME280;19141;48.980;8.410;2022-12-24T16:01:47;100299.00;;;11.02;100.00
32789;BME280;19141;48.980;8.410;2022-12-24T16:04:15;100302.63;;;11.01;100.00
32789;BME280;19141;48.980;8.410;2022-12-24T16:06:58;100314.50;;;10.99;100.00
32789;BME280;19141;48.980;8.410;2022-12-24T16:09:40;100310.00;;;10.99;100.00
32789;BME280;19141;48.980;8.410;2022-12-24T16:12:22;100304.19;;;10.96;100.00
32789;BME280;19141;48.980;8.410;2022-12-24T16:14:51;100297.19;;;10.95;100.00
32789;BME280;19141;48.980;8.410;2022-12-24T16:17:21;100299.00;;;10.94;100.00
32789;BME280;19141;48.980;8.410;2022-12-24T16:19:50;100301.03;;;10.92;100.00
32789;BME280;19141;48.980;8.410;2022-12-24T16:22:18;100316.19;;;10.92;100.00
32789;BME280;19141;48.980;8.410;2022-12-24T16:25:38;100315.19;;;10.93;100.00
32789;BME280;19141;48.980;8.410;2022-12-24T16:27:51;100333.19;;;10.91;100.00
32789;BME280;19141;48.980;8.410;2022-12-24T16:30:19;100323.41;;;10.83;100.00
32789;BME280;19141;48.980;8.410;2022-12-24T16:32:46;100334.34;;;10.88;100.00
32789;BME280;19141;48.980;8.410;2022-12-24T16:35:25;100333.38;;;10.81;100.00
32789;BME280;19141;48.980;8.410;2022-12-24T16:37:52;100330.91;;;10.79;100.00
32789;BME280;19141;48.980;8.410;2022-12-24T16:40:18;100324.41;;;10.74;100.00
32789;BME280;19141;48.980;8.410;2022-12-24T16:42:44;100328.75;;;10.75;100.00
32789;BME280;19141;48.980;8.410;2022-12-24T16:45:28;100320.28;;;10.71;100.00
32789;BME280;19141;48.980;8.410;2022-12-24T16:47:58;100320.09;;;10.73;100.00
32789;BME280;19141;48.980;8.410;2022-12-24T16:50:24;100315.28;;;10.76;100.00
32789;BME280;19141;48.980;8.410;2022-12-24T16:52:49;100313.13;;;10.72;100.00
32789;BME280;19141;48.980;8.410;2022-12-24T16:55:15;100319.28;;;10.72;100.00
32789;BME280;19141;48.980;8.410;2022-12-24T16:57:41;100318.78;;;10.69;100.00
32789;BME280;19141;48.980;8.410;2022-12-24T17:00:13;100324.09;;;10.69;100.00
32789;BME280;19141;48.980;8.410;2022-12-24T17:02:38;100334.75;;;10.69;100.00
32789;BME280;19141;48.980;8.410;2022-12-24T17:05:04;100322.13;;;10.63;100.00
32789;BME280;19141;48.980;8.410;2022-12-24T17:07:30;100330.63;;;10.66;100.00
32789;BME280;19141;48.980;8.410;2022-12-24T17:09:55;100333.47;;;10.65;100.00
32789;BME280;19141;48.980;8.410;2022-12-24T17:12:21;100335.44;;;10.63;100.00
32789;BME280;19141;48.980;8.410;2022-12-24T17:14:46;100333.78;;;10.62;100.00
32789;BME280;19141;48.980;8.410;2022-12-24T17:17:23;100334.47;;;10.64;100.00
32789;BME280;19141;48.980;8.410;2022-12-24T17:19:48;100330.44;;;10.68;100.00
32789;BME280;19141;48.980;8.410;2022-12-24T17:22:14;100335.13;;;10.66;100.00
32789;BME280;19141;48.980;8.410;2022-12-24T17:24:39;100353.09;;;10.64;100.00
32789;BME280;19141;48.980;8.410;2022-12-24T17:27:05;100363.25;;;10.60;100.00
32789;BME280;19141;48.980;8.410;2022-12-24T17:29:30;100362.44;;;10.59;100.00
32789;BME280;19141;48.980;8.410;2022-12-24T17:31:56;100364.09;;;10.60;100.00
32789;BME280;19141;48.980;8.410;2022-12-24T17:34:21;100365.44;;;10.56;100.00
32789;BME280;19141;48.980;8.410;2022-12-24T17:36:46;100368.41;;;10.62;100.00
32789;BME280;19141;48.980;8.410;2022-12-24T17:39:12;100361.25;;;10.62;100.00
32789;BME280;19141;48.980;8.410;2022-12-24T17:41:37;100363.09;;;10.62;100.00
32789;BME280;19141;48.980;8.410;2022-12-24T17:44:03;100357.59;;;10.55;100.00
32789;BME280;19141;48.980;8.410;2022-12-24T17:46:29;100363.09;;;10.62;100.00
32789;BME280;19141;48.980;8.410;2022-12-24T17:48:54;100362.94;;;10.63;100.00
32789;BME280;19141;48.980;8.410;2022-12-24T17:51:21;100356.09;;;10.60;100.00
32789;BME280;19141;48.980;8.410;2022-12-24T17:53:48;100352.28;;;10.63;100.00
32789;BME280;19141;48.980;8.410;2022-12-24T17:56:14;100344.13;;;10.65;100.00
32789;BME280;19141;48.980;8.410;2022-12-24T17:58:44;100349.44;;;10.65;100.00
32789;BME280;19141;48.980;8.410;2022-12-24T18:01:16;100341.44;;;10.65;100.00
32789;BME280;19141;48.980;8.410;2022-12-24T18:03:42;100335.13;;;10.66;100.00
32789;BME280;19141;48.980;8.410;2022-12-24T18:06:10;100337.78;;;10.66;100.00
32789;BME280;19141;48.980;8.410;2022-12-24T18:08:36;100332.13;;;10.60;100.00
32789;BME280;19141;48.980;8.410;2022-12-24T18:13:47;100340.75;;;10.63;100.00
32789;BME280;19141;48.980;8.410;2022-12-24T18:16:18;100334.78;;;10.60;100.00
32789;BME280;19141;48.980;8.410;2022-12-24T18:18:45;100337.44;;;10.60;100.00
32789;BME280;19141;48.980;8.410;2022-12-24T18:21:10;100351.78;;;10.59;100.00
32789;BME280;19141;48.980;8.410;2022-12-24T18:23:36;100345.44;;;10.60;100.00
32789;BME280;19141;48.980;8.410;2022-12-24T18:26:05;100350.78;;;10.60;100.00
32789;BME280;19141;48.980;8.410;2022-12-24T18:28:31;100353.44;;;10.60;100.00
32789;BME280;19141;48.980;8.410;2022-12-24T18:31:02;100357.75;;;10.62;100.00
32789;BME280;19141;48.980;8.410;2022-12-24T18:33:29;100356.09;;;10.60;100.00
32789;BME280;19141;48.980;8.410;2022-12-24T18:35:55;100356.09;;;10.60;100.00
32789;BME280;19141;48.980;8.410;2022-12-24T18:38:20;100353.63;;;10.59;100.00
32789;BME280;19141;48.980;8.410;2022-12-24T18:40:46;100361.59;;;10.59;100.00
32789;BME280;19141;48.980;8.410;2022-12-24T18:43:11;100363.63;;;10.57;100.00
32789;BME280;19141;48.980;8.410;2022-12-24T18:45:40;100360.78;;;10.58;100.00
32789;BME280;19141;48.980;8.410;2022-12-24T18:48:07;100357.47;;;10.56;100.00
32789;BME280;19141;48.980;8.410;2022-12-24T18:50:32;100366.94;;;10.59;100.00
32789;BME280;19141;48.980;8.410;2022-12-24T18:52:57;100361.25;;;10.62;100.00
32789;BME280;19141;48.980;8.410;2022-12-24T18:55:23;100357.09;;;10.59;100.00
32789;BME280;19141;48.980;8.410;2022-12-24T18:57:48;100347.63;;;10.57;100.00
32789;BME280;19141;48.980;8.410;2022-12-24T19:00:14;100348.28;;;10.59;100.00
32789;BME280;19141;48.980;8.410;2022-12-24T19:02:39;100349.47;;;10.56;100.00
32789;BME280;19141;48.980;8.410;2022-12-24T19:05:05;100351.13;;;10.57;100.00
32789;BME280;19141;48.980;8.410;2022-12-24T19:07:31;100354.13;;;10.54;100.00
32789;BME280;19141;48.980;8.410;2022-12-24T19:09:56;100348.78;;;10.54;100.00
32789;BME280;19141;48.980;8.410;2022-12-24T19:12:21;100347.97;;;10.54;100.00
32789;BME280;19141;48.980;8.410;2022-12-24T19:14:47;100356.13;;;10.52;100.00
32789;BME280;19141;48.980;8.410;2022-12-24T19:17:12;100355.13;;;10.53;100.00
32789;BME280;19141;48.980;8.410;2022-12-24T19:19:38;100354.78;;;10.48;100.00
32789;BME280;19141;48.980;8.410;2022-12-24T19:22:03;100359.13;;;10.49;100.00
32789;BME280;19141;48.980;8.410;2022-12-24T19:24:29;100356.63;;;10.48;100.00
32789;BME280;19141;48.980;8.410;2022-12-24T19:26:54;100365.81;;;10.45;100.00
32789;BME280;19141;48.980;8.410;2022-12-24T19:29:20;100367.63;;;10.45;100.00
32789;BME280;19141;48.980;8.410;2022-12-24T19:31:45;100371.44;;;10.42;100.00